Time,TemperatureF,DewpointF,PressureIn,WindDirection,WindDirectionDegrees,WindSpeedMPH,WindSpeedGustMPH,Humidity,HourlyPrecipIn,Conditions,Clouds,dailyrainin,SoftwareType,DateUTC
2013-07-12 00:01:00,67.6,65.2,32.29,NE,41,0.0,0.0,92,0.00,,SKC,0.01,VWS V14.01,2013-07-12 04:01:00,
2013-07-12 00:06:00,67.6,65.2,32.29,NE,42,0.0,0.0,92,0.00,,SKC,0.00,VWS V14.01,2013-07-12 04:06:00,
2013-07-12 00:11:00,67.6,65.2,32.29,NE,41,0.0,0.0,92,0.00,,SKC,0.00,VWS V14.01,2013-07-12 04:11:00,
2013-07-12 00:16:00,67.6,65.2,32.29,NE,41,0.0,0.0,92,0.00,,SKC,0.00,VWS V14.01,2013-07-12 04:16:00,
2013-07-12 00:21:00,67.6,65.2,32.29,NE,41,0.0,0.0,92,0.00,,SKC,0.00,VWS V14.01,2013-07-12 04:21:00,
2013-07-12 00:26:00,67.5,65.1,32.29,NE,42,0.0,0.0,92,0.00,,SKC,0.00,VWS V14.01,2013-07-12 04:26:00,
2013-07-12 00:31:00,67.4,65.3,32.29,NE,41,0.0,0.0,93,0.00,,SKC,0.00,VWS V14.01,2013-07-12 04:31:00,
2013-07-12 00:36:00,67.2,65.1,32.29,NE,42,0.0,0.0,93,0.00,,SKC,0.00,VWS V14.01,2013-07-12 04:36:00,
2013-07-12 00:41:00,67.1,65.0,32.29,NE,42,0.0,0.0,93,0.00,,SKC,0.00,VWS V14.01,2013-07-12 04:41:00,
2013-07-12 00:46:00,67.0,64.9,32.29,NE,41,0.0,0.0,93,0.00,,SKC,0.00,VWS V14.01,2013-07-12 04:46:00,
2013-07-12 00:51:00,66.9,64.8,32.29,NE,41,0.0,0.0,93,0.00,,SKC,0.00,VWS V14.01,2013-07-12 04:51:00,
2013-07-12 00:56:00,66.7,64.6,32.29,NE,41,0.0,0.0,93,0.00,,SKC,0.00,VWS V14.01,2013-07-12 04:56:00,
2013-07-12 01:01:00,66.5,64.4,32.29,NE,41,0.0,0.0,93,0.00,,SKC,0.00,VWS V14.01,2013-07-12 05:01:00,
2013-07-12 01:06:00,66.3,64.2,32.29,NE,42,0.0,0.0,93,0.00,,SKC,0.00,VWS V14.01,2013-07-12 05:06:00,
2013-07-12 01:11:00,66.2,64.1,32.29,NE,42,0.0,0.0,93,0.00,,SKC,0.00,VWS V14.01,2013-07-12 05:11:00,
2013-07-12 01:16:00,66.0,63.9,32.29,NE,42,0.0,0.0,93,0.00,,SKC,0.00,VWS V14.01,2013-07-12 05:16:00,
2013-07-12 01:21:00,65.8,63.7,32.29,NE,42,0.0,0.0,93,0.00,,SKC,0.00,VWS V14.01,2013-07-12 05:21:00,
2013-07-12 01:26:00,65.7,63.6,32.29,NE,42,0.0,0.0,93,0.00,,SKC,0.00,VWS V14.01,2013-07-12 05:26:00,
2013-07-12 01:31:00,65.6,63.5,32.29,NE,42,0.0,0.0,93,0.00,,SKC,0.00,VWS V14.01,2013-07-12 05:31:00,
2013-07-12 01:36:00,65.5,63.7,32.29,NE,42,0.0,0.0,94,0.00,,SKC,0.00,VWS V14.01,2013-07-12 05:36:00,
2013-07-12 01:41:00,65.5,63.7,32.29,NE,42,0.0,0.0,94,0.00,,SKC,0.00,VWS V14.01,2013-07-12 05:41:00,
2013-07-12 01:46:00,65.5,63.7,32.29,NE,42,0.0,0.0,94,0.00,,SKC,0.00,VWS V14.01,2013-07-12 05:46:00,
2013-07-12 01:51:00,65.4,63.6,32.29,NE,41,0.0,0.0,94,0.00,,SKC,0.00,VWS V14.01,2013-07-12 05:51:00,
2013-07-12 01:56:00,65.3,63.5,32.29,NE,42,0.0,0.0,94,0.00,,SKC,0.00,VWS V14.01,2013-07-12 05:56:00,
2013-07-12 02:01:00,65.2,63.4,32.29,NE,41,0.0,0.0,94,0.00,,SKC,0.00,VWS V14.01,2013-07-12 06:01:00,
2013-07-12 02:06:00,65.1,63.3,32.29,NE,41,0.0,0.0,94,0.00,,SKC,0.00,VWS V14.01,2013-07-12 06:06:00,
2013-07-12 02:11:00,65.0,63.2,32.29,NE,42,0.0,0.0,94,0.00,,SKC,0.00,VWS V14.01,2013-07-12 06:11:00,
2013-07-12 02:16:00,64.9,63.1,32.29,NE,41,0.0,0.0,94,0.00,,SKC,0.00,VWS V14.01,2013-07-12 06:16:00,
2013-07-12 02:21:00,64.9,63.1,32.29,NE,42,0.0,0.0,94,0.00,,SKC,0.00,VWS V14.01,2013-07-12 06:21:00,
2013-07-12 02:25:00,64.9,63.1,32.29,NE,41,0.0,0.0,94,0.00,,SKC,0.00,VWS V14.01,2013-07-12 06:25:00,
2013-07-12 02:30:00,64.9,63.1,32.29,NE,42,0.0,0.0,94,0.00,,SKC,0.00,VWS V14.01,2013-07-12 06:30:00,
2013-07-12 02:35:00,64.8,63.0,32.29,NE,42,0.0,0.0,94,0.00,,SKC,0.00,VWS V14.01,2013-07-12 06:35:00,
2013-07-12 02:40:00,64.7,62.9,32.29,NE,41,0.0,0.0,94,0.00,,SKC,0.00,VWS V14.01,2013-07-12 06:40:00,
2013-07-12 02:45:00,64.8,63.3,32.29,NE,42,0.0,0.0,95,0.00,,SKC,0.00,VWS V14.01,2013-07-12 06:45:00,
2013-07-12 02:50:00,64.8,63.3,32.29,NE,42,0.0,0.0,95,0.00,,SKC,0.00,VWS V14.01,2013-07-12 06:50:00,
2013-07-12 02:55:00,65.0,63.5,32.29,NE,41,0.0,0.0,95,0.00,,SKC,0.00,VWS V14.01,2013-07-12 06:55:00,
2013-07-12 03:00:00,65.1,63.6,32.29,NE,42,0.0,0.0,95,0.00,,SKC,0.00,VWS V14.01,2013-07-12 07:00:00,
2013-07-12 03:05:00,65.1,63.6,32.29,NE,42,0.0,0.0,95,0.00,,SKC,0.00,VWS V14.01,2013-07-12 07:05:00,
2013-07-12 03:10:00,65.0,63.5,32.29,NE,41,0.0,0.0,95,0.00,,SKC,0.00,VWS V14.01,2013-07-12 07:10:00,
2013-07-12 03:15:00,64.9,63.4,32.29,NE,41,0.0,0.0,95,0.00,,SKC,0.00,VWS V14.01,2013-07-12 07:15:00,
2013-07-12 03:20:00,64.8,63.3,32.29,NE,42,0.0,0.0,95,0.00,,SKC,0.00,VWS V14.01,2013-07-12 07:20:00,
2013-07-12 03:25:00,64.7,63.2,32.29,NE,41,0.0,0.0,95,0.00,,SKC,0.00,VWS V14.01,2013-07-12 07:25:00,
2013-07-12 03:30:00,64.6,63.1,32.29,NE,41,0.0,0.0,95,0.00,,SKC,0.00,VWS V14.01,2013-07-12 07:30:00,
2013-07-12 03:35:00,64.5,63.0,32.29,NE,42,0.0,0.0,95,0.00,,SKC,0.00,VWS V14.01,2013-07-12 07:35:00,
2013-07-12 03:40:00,64.4,62.9,32.29,NE,41,0.0,0.0,95,0.00,,SKC,0.00,VWS V14.01,2013-07-12 07:40:00,
2013-07-12 03:45:00,64.3,62.8,32.29,NE,41,0.0,0.0,95,0.00,,SKC,0.00,VWS V14.01,2013-07-12 07:45:00,
2013-07-12 03:50:00,64.3,62.8,32.29,NE,42,0.0,0.0,95,0.00,,SKC,0.00,VWS V14.01,2013-07-12 07:50:00,
2013-07-12 03:55:00,64.1,62.6,32.29,NE,42,0.0,0.0,95,0.00,,SKC,0.00,VWS V14.01,2013-07-12 07:55:00,
2013-07-12 04:00:00,64.0,62.5,32.29,NE,42,1.0,2.0,95,0.00,,SKC,0.00,VWS V14.01,2013-07-12 08:00:00,
2013-07-12 04:05:00,64.0,62.2,32.29,NE,41,0.0,0.0,94,0.00,,SKC,0.00,VWS V14.01,2013-07-12 08:05:00,
2013-07-12 04:10:00,63.8,62.3,32.29,NE,41,0.0,0.0,95,0.00,,SKC,0.00,VWS V14.01,2013-07-12 08:10:00,
2013-07-12 04:15:00,63.8,62.3,32.29,NE,42,0.0,0.0,95,0.00,,SKC,0.00,VWS V14.01,2013-07-12 08:15:00,
2013-07-12 04:20:00,63.6,62.2,32.29,NE,41,0.0,0.0,95,0.00,,SKC,0.00,VWS V14.01,2013-07-12 08:20:00,
2013-07-12 04:25:00,63.5,62.0,32.29,NE,42,0.0,0.0,95,0.00,,SKC,0.00,VWS V14.01,2013-07-12 08:25:00,
2013-07-12 04:30:00,63.4,62.0,32.29,NE,41,0.0,0.0,95,0.00,,SKC,0.00,VWS V14.01,2013-07-12 08:30:00,
2013-07-12 04:35:00,63.3,61.8,32.29,NE,42,0.0,0.0,95,0.00,,SKC,0.00,VWS V14.01,2013-07-12 08:35:00,
2013-07-12 04:40:00,63.4,62.0,32.29,NE,41,0.0,0.0,95,0.00,,SKC,0.00,VWS V14.01,2013-07-12 08:40:00,
2013-07-12 04:45:00,63.4,62.0,32.29,NE,42,0.0,0.0,95,0.00,,SKC,0.00,VWS V14.01,2013-07-12 08:45:00,
2013-07-12 04:50:00,63.5,62.0,32.29,NE,42,0.0,0.0,95,0.00,,SKC,0.00,VWS V14.01,2013-07-12 08:50:00,
2013-07-12 04:55:00,63.6,62.2,32.29,NE,41,0.0,0.0,95,0.00,,SKC,0.00,VWS V14.01,2013-07-12 08:55:00,
2013-07-12 05:00:00,63.6,62.2,32.29,NE,42,0.0,0.0,95,0.00,,SKC,0.00,VWS V14.01,2013-07-12 09:00:00,
2013-07-12 05:05:00,63.6,62.2,32.29,NE,41,0.0,0.0,95,0.00,,SKC,0.00,VWS V14.01,2013-07-12 09:05:00,
2013-07-12 05:10:00,63.6,62.2,32.29,NE,42,0.0,0.0,95,0.00,,SKC,0.00,VWS V14.01,2013-07-12 09:10:00,
2013-07-12 05:15:00,63.6,62.2,32.29,NE,41,0.0,0.0,95,0.00,,SKC,0.00,VWS V14.01,2013-07-12 09:15:00,
2013-07-12 05:20:00,63.7,62.2,32.29,NE,42,0.0,0.0,95,0.00,,SKC,0.00,VWS V14.01,2013-07-12 09:20:00,
2013-07-12 05:25:00,63.7,62.2,32.29,NE,42,0.0,0.0,95,0.00,,SKC,0.00,VWS V14.01,2013-07-12 09:25:00,
2013-07-12 05:30:00,63.8,62.3,32.29,NE,42,0.0,0.0,95,0.00,,SKC,0.00,VWS V14.01,2013-07-12 09:30:00,
2013-07-12 05:35:00,63.7,62.2,32.29,NE,42,0.0,0.0,95,0.00,,SKC,0.00,VWS V14.01,2013-07-12 09:35:00,
2013-07-12 05:40:00,63.7,62.2,32.29,NE,41,0.0,0.0,95,0.00,,SKC,0.00,VWS V14.01,2013-07-12 09:40:00,
2013-07-12 05:45:00,63.6,62.2,32.29,NE,42,0.0,0.0,95,0.00,,SKC,0.00,VWS V14.01,2013-07-12 09:45:00,
2013-07-12 05:50:00,63.6,62.2,32.29,NE,42,0.0,0.0,95,0.00,,SKC,0.00,VWS V14.01,2013-07-12 09:50:00,
2013-07-12 05:55:00,63.6,62.2,32.29,NE,42,0.0,0.0,95,0.00,,SKC,0.00,VWS V14.01,2013-07-12 09:55:00,
2013-07-12 06:00:00,63.5,62.0,32.29,NE,42,0.0,0.0,95,0.00,,SKC,0.00,VWS V14.01,2013-07-12 10:00:00,
2013-07-12 06:05:00,63.5,62.0,32.29,NE,41,0.0,0.0,95,0.00,,SKC,0.00,VWS V14.01,2013-07-12 10:05:00,
2013-07-12 06:10:00,63.5,62.0,32.29,NE,42,0.0,0.0,95,0.00,,SKC,0.00,VWS V14.01,2013-07-12 10:10:00,
2013-07-12 06:15:00,63.5,62.0,32.29,NE,42,0.0,0.0,95,0.00,,SKC,0.00,VWS V14.01,2013-07-12 10:15:00,
2013-07-12 06:20:00,63.5,62.0,32.29,NE,42,0.0,0.0,95,0.00,,SKC,0.00,VWS V14.01,2013-07-12 10:20:00,
2013-07-12 06:25:00,63.6,62.2,32.29,NE,41,0.0,0.0,95,0.00,,SKC,0.00,VWS V14.01,2013-07-12 10:25:00,
2013-07-12 06:30:00,63.6,62.2,32.29,NE,42,0.0,0.0,95,0.00,,SKC,0.00,VWS V14.01,2013-07-12 10:30:00,
2013-07-12 06:35:00,63.7,62.2,32.29,NE,42,0.0,0.0,95,0.00,,SKC,0.00,VWS V14.01,2013-07-12 10:35:00,
2013-07-12 06:40:00,63.8,62.3,32.29,NE,41,0.0,0.0,95,0.00,,SKC,0.00,VWS V14.01,2013-07-12 10:40:00,
2013-07-12 06:45:00,63.9,62.4,32.29,NE,41,0.0,0.0,95,0.00,,SKC,0.00,VWS V14.01,2013-07-12 10:45:00,
2013-07-12 06:50:00,64.0,62.5,32.29,NE,41,0.0,0.0,95,0.00,,SKC,0.00,VWS V14.01,2013-07-12 10:50:00,
2013-07-12 06:55:00,64.1,62.6,32.29,NE,42,0.0,0.0,95,0.00,,SKC,0.00,VWS V14.01,2013-07-12 10:55:00,
2013-07-12 07:00:00,64.1,62.6,32.29,NE,42,0.0,0.0,95,0.00,,SKC,0.00,VWS V14.01,2013-07-12 11:00:00,
2013-07-12 07:05:00,64.0,62.5,32.29,NE,41,0.0,0.0,95,0.00,,SKC,0.00,VWS V14.01,2013-07-12 11:05:00,
2013-07-12 07:10:00,64.0,62.5,32.29,NE,41,0.0,0.0,95,0.00,,SKC,0.00,VWS V14.01,2013-07-12 11:10:00,
2013-07-12 07:15:00,63.9,62.4,32.29,NE,42,0.0,0.0,95,0.00,,SKC,0.00,VWS V14.01,2013-07-12 11:15:00,
2013-07-12 07:20:00,63.9,62.4,32.29,NE,42,0.0,0.0,95,0.00,,SKC,0.00,VWS V14.01,2013-07-12 11:20:00,
2013-07-12 07:25:00,63.9,62.4,32.29,NE,42,0.0,0.0,95,0.00,,SKC,0.00,VWS V14.01,2013-07-12 11:25:00,
2013-07-12 07:30:00,63.7,62.2,32.29,NE,42,0.0,0.0,95,0.00,,SKC,0.00,VWS V14.01,2013-07-12 11:30:00,
2013-07-12 07:35:00,63.6,62.2,32.29,NE,41,0.0,0.0,95,0.00,,SKC,0.00,VWS V14.01,2013-07-12 11:35:00,
2013-07-12 07:40:00,63.8,62.3,32.29,NE,41,0.0,0.0,95,0.00,,SKC,0.00,VWS V14.01,2013-07-12 11:40:00,
2013-07-12 07:45:00,63.8,62.3,32.29,NE,42,0.0,0.0,95,0.00,,SKC,0.00,VWS V14.01,2013-07-12 11:45:00,
2013-07-12 07:50:00,63.8,62.3,32.29,NE,42,0.0,0.0,95,0.00,,SKC,0.00,VWS V14.01,2013-07-12 11:50:00,
2013-07-12 07:55:00,63.8,62.3,32.29,NE,42,0.0,0.0,95,0.00,,SKC,0.00,VWS V14.01,2013-07-12 11:55:00,
2013-07-12 08:00:00,64.0,62.5,32.29,NE,41,0.0,0.0,95,0.00,,SKC,0.00,VWS V14.01,2013-07-12 12:00:00,
2013-07-12 08:05:00,64.1,62.6,32.29,NE,42,0.0,0.0,95,0.00,,SKC,0.00,VWS V14.01,2013-07-12 12:05:00,
2013-07-12 08:10:00,64.3,62.8,32.29,NE,42,0.0,0.0,95,0.00,,SKC,0.00,VWS V14.01,2013-07-12 12:10:00,
2013-07-12 08:15:00,64.4,62.9,32.29,NE,42,0.0,0.0,95,0.00,,SKC,0.00,VWS V14.01,2013-07-12 12:15:00,
2013-07-12 08:20:00,64.6,63.1,32.29,NE,41,0.0,0.0,95,0.00,,SKC,0.00,VWS V14.01,2013-07-12 12:20:00,
2013-07-12 08:25:00,64.6,63.1,32.29,NE,42,0.0,1.0,95,0.00,,SKC,0.00,VWS V14.01,2013-07-12 12:25:00,
2013-07-12 08:30:00,64.7,63.2,32.29,NE,42,0.0,0.0,95,0.00,,SKC,0.00,VWS V14.01,2013-07-12 12:30:00,
2013-07-12 08:35:00,64.8,63.3,32.29,NE,44,0.0,0.0,95,0.00,,SKC,0.00,VWS V14.01,2013-07-12 12:35:00,
2013-07-12 08:40:00,64.8,63.3,32.29,NE,44,0.0,0.0,95,0.00,,SKC,0.00,VWS V14.01,2013-07-12 12:40:00,
2013-07-12 08:45:00,64.9,63.4,32.29,NE,44,0.0,1.0,95,0.00,,SKC,0.00,VWS V14.01,2013-07-12 12:45:00,
2013-07-12 08:50:00,64.9,63.4,32.29,NE,44,0.0,0.0,95,0.00,,SKC,0.00,VWS V14.01,2013-07-12 12:50:00,
2013-07-12 08:55:00,65.0,63.5,32.29,NE,44,0.0,0.0,95,0.00,,SKC,0.00,VWS V14.01,2013-07-12 12:55:00,
2013-07-12 09:00:00,65.3,63.8,32.29,NE,44,1.0,1.0,95,0.00,,SKC,0.00,VWS V14.01,2013-07-12 13:00:00,
2013-07-12 09:05:00,65.4,63.9,32.29,NE,44,0.0,0.0,95,0.00,,SKC,0.00,VWS V14.01,2013-07-12 13:05:00,
2013-07-12 09:10:00,65.7,64.2,32.29,NE,44,0.0,0.0,95,0.00,,SKC,0.00,VWS V14.01,2013-07-12 13:10:00,
2013-07-12 09:15:00,66.2,64.4,32.29,NE,44,1.0,1.0,94,0.00,,SKC,0.00,VWS V14.01,2013-07-12 13:15:00,
2013-07-12 09:20:00,67.0,64.6,32.29,NE,44,0.0,2.0,92,0.00,,SKC,0.00,VWS V14.01,2013-07-12 13:20:00,
2013-07-12 09:25:00,67.8,64.8,32.29,NE,44,0.0,0.0,90,0.00,,SKC,0.00,VWS V14.01,2013-07-12 13:25:00,
2013-07-12 09:30:00,68.8,65.4,32.29,East,88,1.0,2.0,89,0.00,,SKC,0.00,VWS V14.01,2013-07-12 13:30:00,
2013-07-12 09:35:00,69.8,65.4,32.29,East,88,0.0,0.0,86,0.00,,SKC,0.00,VWS V14.01,2013-07-12 13:35:00,
2013-07-12 09:40:00,70.5,65.1,32.29,East,88,1.0,1.0,83,0.00,,SKC,0.00,VWS V14.01,2013-07-12 13:40:00,
2013-07-12 09:44:00,71.5,65.7,32.29,East,88,0.0,0.0,82,0.00,,SKC,0.00,VWS V14.01,2013-07-12 13:44:00,
2013-07-12 09:49:00,72.2,65.0,32.29,NE,34,1.0,3.0,78,0.00,,SKC,0.00,VWS V14.01,2013-07-12 13:49:00,
2013-07-12 09:54:00,72.4,65.9,32.29,NE,35,0.0,2.0,80,0.00,,SKC,0.00,VWS V14.01,2013-07-12 13:54:00,
2013-07-12 09:59:00,72.4,64.8,32.29,NE,35,0.0,1.0,77,0.00,,SKC,0.00,VWS V14.01,2013-07-12 13:59:00,
2013-07-12 10:04:00,72.4,64.8,32.29,NE,35,0.0,0.0,77,0.00,,SKC,0.00,VWS V14.01,2013-07-12 14:04:00,
2013-07-12 10:09:00,72.5,65.3,32.29,NE,35,0.0,1.0,78,0.00,,SKC,0.00,VWS V14.01,2013-07-12 14:09:00,
2013-07-12 10:14:00,72.7,65.1,32.29,SE,126,0.0,1.0,77,0.00,,SKC,0.00,VWS V14.01,2013-07-12 14:14:00,
2013-07-12 10:19:00,73.3,66.4,32.29,ESE,123,0.0,1.0,79,0.00,,SKC,0.00,VWS V14.01,2013-07-12 14:19:00,
2013-07-12 10:24:00,73.4,65.0,32.29,ESE,119,0.0,0.0,75,0.00,,SKC,0.00,VWS V14.01,2013-07-12 14:24:00,
2013-07-12 10:29:00,73.7,66.1,32.29,SSE,157,3.0,3.0,77,0.00,,SKC,0.00,VWS V14.01,2013-07-12 14:29:00,
2013-07-12 10:34:00,74.1,66.4,32.29,SSE,158,0.0,1.0,77,0.00,,SKC,0.00,VWS V14.01,2013-07-12 14:34:00,
2013-07-12 10:39:00,75.3,66.4,32.29,NNE,17,1.0,2.0,74,0.00,,SKC,0.00,VWS V14.01,2013-07-12 14:39:00,
2013-07-12 10:44:00,75.5,66.2,32.29,ESE,105,0.0,0.0,73,0.00,,SKC,0.00,VWS V14.01,2013-07-12 14:44:00,
2013-07-12 10:49:00,75.6,66.3,32.29,ESE,105,2.0,2.0,73,0.00,,SKC,0.00,VWS V14.01,2013-07-12 14:49:00,
2013-07-12 10:54:00,75.3,66.4,32.29,ESE,108,0.0,1.0,74,0.00,,SKC,0.00,VWS V14.01,2013-07-12 14:54:00,
2013-07-12 10:59:00,75.5,66.2,32.29,ESE,110,1.0,2.0,73,0.00,,SKC,0.00,VWS V14.01,2013-07-12 14:59:00,
2013-07-12 11:04:00,75.8,65.7,32.29,East,87,0.0,5.0,71,0.00,,SKC,0.00,VWS V14.01,2013-07-12 15:04:00,
2013-07-12 11:09:00,75.6,65.5,32.29,ESE,107,0.0,0.0,71,0.00,,SKC,0.00,VWS V14.01,2013-07-12 15:09:00,
2013-07-12 11:14:00,75.9,65.4,32.29,ESE,103,0.0,1.0,70,0.00,,SKC,0.00,VWS V14.01,2013-07-12 15:14:00,
2013-07-12 11:19:00,76.1,66.0,32.29,ESE,104,0.0,0.0,71,0.00,,SKC,0.00,VWS V14.01,2013-07-12 15:19:00,
2013-07-12 11:24:00,76.1,65.6,32.29,NNE,33,4.0,4.0,70,0.00,,SKC,0.00,VWS V14.01,2013-07-12 15:24:00,
2013-07-12 11:29:00,75.9,65.0,32.29,NNE,33,2.0,2.0,69,0.00,,SKC,0.00,VWS V14.01,2013-07-12 15:29:00,
2013-07-12 11:34:00,75.9,65.0,32.29,NNE,33,2.0,2.0,69,0.00,,SKC,0.00,VWS V14.01,2013-07-12 15:34:00,
2013-07-12 11:39:00,76.2,64.9,32.29,NNE,33,1.0,1.0,68,0.00,,SKC,0.00,VWS V14.01,2013-07-12 15:39:00,
2013-07-12 11:44:00,76.6,64.8,32.29,NE,34,0.0,0.0,67,0.00,,SKC,0.00,VWS V14.01,2013-07-12 15:44:00,
2013-07-12 11:49:00,76.6,65.3,32.29,NE,36,1.0,1.0,68,0.00,,SKC,0.00,VWS V14.01,2013-07-12 15:49:00,
2013-07-12 11:54:00,77.1,64.4,32.29,NE,49,3.0,3.0,65,0.00,,SKC,0.00,VWS V14.01,2013-07-12 15:54:00,
2013-07-12 11:59:00,77.5,65.3,32.29,NE,40,0.0,1.0,66,0.00,,SKC,0.00,VWS V14.01,2013-07-12 15:59:00,
2013-07-12 12:04:00,78.3,63.8,32.29,NNE,32,0.0,1.0,61,0.00,,SKC,0.00,VWS V14.01,2013-07-12 16:04:00,
2013-07-12 12:09:00,78.6,65.0,32.29,NNE,27,2.0,2.0,63,0.00,,SKC,0.00,VWS V14.01,2013-07-12 16:09:00,
2013-07-12 12:14:00,78.0,65.7,32.29,East,98,0.0,0.0,66,0.00,,SKC,0.00,VWS V14.01,2013-07-12 16:14:00,
2013-07-12 12:19:00,78.3,66.0,32.29,North,5,1.0,2.0,66,0.00,,SKC,0.00,VWS V14.01,2013-07-12 16:19:00,
2013-07-12 12:24:00,78.4,64.8,32.29,North,5,0.0,1.0,63,0.00,,SKC,0.00,VWS V14.01,2013-07-12 16:24:00,
2013-07-12 12:29:00,79.0,65.3,32.29,North,5,1.0,1.0,63,0.00,,SKC,0.00,VWS V14.01,2013-07-12 16:29:00,
2013-07-12 12:34:00,79.2,66.0,32.29,North,9,0.0,1.0,64,0.00,,SKC,0.00,VWS V14.01,2013-07-12 16:34:00,
2013-07-12 12:39:00,79.8,65.6,32.29,East,81,5.0,5.0,62,0.00,,SKC,0.00,VWS V14.01,2013-07-12 16:39:00,
2013-07-12 12:44:00,79.7,65.5,32.29,SSE,148,2.0,2.0,62,0.00,,SKC,0.00,VWS V14.01,2013-07-12 16:44:00,
2013-07-12 12:49:00,78.7,66.0,32.29,NE,52,2.0,2.0,65,0.00,,SKC,0.00,VWS V14.01,2013-07-12 16:49:00,
2013-07-12 12:54:00,78.7,65.5,32.29,ENE,68,0.0,0.0,64,0.00,,SKC,0.00,VWS V14.01,2013-07-12 16:54:00,
2013-07-12 12:59:00,79.4,67.1,32.29,ENE,68,0.0,1.0,66,0.00,,SKC,0.00,VWS V14.01,2013-07-12 16:59:00,
2013-07-12 13:04:00,80.4,66.2,32.29,East,82,1.0,3.0,62,0.00,,SKC,0.00,VWS V14.01,2013-07-12 17:04:00,
2013-07-12 13:09:00,79.8,65.2,32.29,NNW,346,6.0,6.0,61,0.00,,SKC,0.00,VWS V14.01,2013-07-12 17:09:00,
2013-07-12 13:14:00,80.0,65.4,32.29,North,360,3.0,6.0,61,0.00,,SKC,0.00,VWS V14.01,2013-07-12 17:14:00,
2013-07-12 13:19:00,80.5,66.3,32.29,North,355,4.0,5.0,62,0.00,,SKC,0.00,VWS V14.01,2013-07-12 17:19:00,
2013-07-12 13:24:00,79.6,65.4,32.29,SE,134,3.0,3.0,62,0.00,,SKC,0.00,VWS V14.01,2013-07-12 17:24:00,
2013-07-12 13:30:00,78.3,65.1,32.29,ESE,114,0.0,0.0,64,0.00,,SKC,0.00,VWS V14.01,2013-07-12 17:30:00,
2013-07-12 13:35:00,78.5,64.9,32.29,NNE,19,0.0,0.0,63,0.00,,SKC,0.00,VWS V14.01,2013-07-12 17:35:00,
2013-07-12 13:40:00,78.7,65.1,32.29,ENE,78,2.0,2.0,63,0.00,,SKC,0.00,VWS V14.01,2013-07-12 17:40:00,
2013-07-12 13:45:00,79.9,65.7,32.29,NNE,28,0.0,1.0,62,0.00,,SKC,0.00,VWS V14.01,2013-07-12 17:45:00,
2013-07-12 13:50:00,80.8,65.6,32.29,North,355,2.0,3.0,60,0.00,,SKC,0.00,VWS V14.01,2013-07-12 17:50:00,
2013-07-12 13:54:00,81.4,66.2,32.29,ENE,69,2.0,4.0,60,0.00,,SKC,0.00,VWS V14.01,2013-07-12 17:54:00,
2013-07-12 13:59:00,81.0,64.8,32.29,WNW,288,3.0,6.0,58,0.00,,SKC,0.00,VWS V14.01,2013-07-12 17:59:00,
2013-07-12 14:05:00,80.9,65.7,32.29,NW,325,0.0,2.0,60,0.00,,SKC,0.00,VWS V14.01,2013-07-12 18:05:00,
2013-07-12 14:10:00,81.4,66.2,32.29,North,360,0.0,0.0,60,0.00,,SKC,0.00,VWS V14.01,2013-07-12 18:10:00,
2013-07-12 14:15:00,81.8,65.6,32.29,NNE,23,3.0,3.0,58,0.00,,SKC,0.00,VWS V14.01,2013-07-12 18:15:00,
2013-07-12 14:20:00,81.1,65.9,32.29,NNE,15,0.0,4.0,60,0.00,,SKC,0.00,VWS V14.01,2013-07-12 18:20:00,
2013-07-12 14:25:00,80.4,64.8,32.29,South,190,0.0,0.0,59,0.00,,SKC,0.00,VWS V14.01,2013-07-12 18:25:00,
2013-07-12 14:30:00,79.4,64.8,32.29,North,360,5.0,8.0,61,0.00,,SKC,0.00,VWS V14.01,2013-07-12 18:30:00,
2013-07-12 14:35:00,78.5,65.3,32.29,NNE,14,1.0,3.0,64,0.00,,SKC,0.00,VWS V14.01,2013-07-12 18:35:00,
2013-07-12 14:40:00,78.8,65.6,32.29,SE,136,0.0,4.0,64,0.00,,SKC,0.00,VWS V14.01,2013-07-12 18:40:00,
2013-07-12 14:45:00,79.1,65.4,32.29,NNE,17,0.0,1.0,63,0.00,,SKC,0.00,VWS V14.01,2013-07-12 18:45:00,
2013-07-12 14:50:00,79.0,65.8,32.29,NNE,15,2.0,2.0,64,0.00,,SKC,0.00,VWS V14.01,2013-07-12 18:50:00,
2013-07-12 14:55:00,79.0,66.2,32.29,NNE,15,3.0,3.0,65,0.00,,SKC,0.00,VWS V14.01,2013-07-12 18:55:00,
2013-07-12 15:00:00,78.6,65.4,32.29,NNE,15,0.0,0.0,64,0.00,,SKC,0.00,VWS V14.01,2013-07-12 19:00:00,
2013-07-12 15:05:00,78.2,65.0,32.29,NNE,15,0.0,0.0,64,0.00,,SKC,0.00,VWS V14.01,2013-07-12 19:05:00,
2013-07-12 15:10:00,78.0,65.7,32.29,NNE,15,0.0,0.0,66,0.00,,SKC,0.00,VWS V14.01,2013-07-12 19:10:00,
2013-07-12 15:15:00,77.8,66.4,32.29,NNE,15,0.0,0.0,68,0.00,,SKC,0.00,VWS V14.01,2013-07-12 19:15:00,
2013-07-12 15:20:00,77.3,65.9,32.29,NNE,15,0.0,0.0,68,0.00,,SKC,0.00,VWS V14.01,2013-07-12 19:20:00,
2013-07-12 15:25:00,76.7,66.6,32.29,NNE,15,0.0,0.0,71,0.00,,SKC,0.00,VWS V14.01,2013-07-12 19:25:00,
2013-07-12 15:30:00,76.6,66.5,32.29,NNE,15,1.0,1.0,71,0.00,,SKC,0.00,VWS V14.01,2013-07-12 19:30:00,
2013-07-12 15:35:00,76.9,65.5,32.29,NNE,15,1.0,1.0,68,0.00,,SKC,0.00,VWS V14.01,2013-07-12 19:35:00,
2013-07-12 15:40:00,77.0,64.3,32.29,South,180,1.0,2.0,65,0.00,,SKC,0.00,VWS V14.01,2013-07-12 19:40:00,
2013-07-12 15:45:00,77.5,65.7,32.29,ESE,121,3.0,5.0,67,0.00,,SKC,0.00,VWS V14.01,2013-07-12 19:45:00,
2013-07-12 15:50:00,78.0,64.4,32.29,ENE,57,0.0,0.0,63,0.00,,SKC,0.00,VWS V14.01,2013-07-12 19:50:00,
2013-07-12 15:55:00,78.7,65.5,32.29,North,5,0.0,1.0,64,0.00,,SKC,0.00,VWS V14.01,2013-07-12 19:55:00,
2013-07-12 16:00:00,79.2,65.1,32.29,North,360,3.0,3.0,62,0.00,,SKC,0.00,VWS V14.01,2013-07-12 20:00:00,
2013-07-12 16:05:00,78.9,64.3,32.29,North,9,1.0,1.0,61,0.00,,SKC,0.00,VWS V14.01,2013-07-12 20:05:00,
2013-07-12 16:10:00,78.7,64.1,32.29,North,5,0.0,0.0,61,0.00,,SKC,0.00,VWS V14.01,2013-07-12 20:10:00,
2013-07-12 16:15:00,78.3,63.3,32.29,North,5,0.0,0.0,60,0.00,,SKC,0.00,VWS V14.01,2013-07-12 20:15:00,
2013-07-12 16:20:00,78.3,64.2,32.29,North,5,0.0,1.0,62,0.00,,SKC,0.00,VWS V14.01,2013-07-12 20:20:00,
2013-07-12 16:25:00,78.6,64.0,32.29,North,360,0.0,1.0,61,0.00,,SKC,0.00,VWS V14.01,2013-07-12 20:25:00,
2013-07-12 16:30:00,78.9,65.2,32.29,North,5,0.0,0.0,63,0.00,,SKC,0.00,VWS V14.01,2013-07-12 20:30:00,
2013-07-12 16:35:00,79.1,63.6,32.29,North,5,0.0,0.0,59,0.00,,SKC,0.00,VWS V14.01,2013-07-12 20:35:00,
2013-07-12 16:41:00,79.1,64.5,32.29,North,5,1.0,2.0,61,0.00,,SKC,0.00,VWS V14.01,2013-07-12 20:41:00,
2013-07-12 16:46:00,78.7,63.7,32.29,NNE,23,2.0,7.0,60,0.00,,SKC,0.00,VWS V14.01,2013-07-12 20:46:00,
2013-07-12 16:51:00,78.7,63.7,32.29,NW,307,6.0,6.0,60,0.00,,SKC,0.00,VWS V14.01,2013-07-12 20:51:00,
2013-07-12 16:56:00,78.0,63.9,32.29,NE,48,0.0,2.0,62,0.00,,SKC,0.00,VWS V14.01,2013-07-12 20:56:00,
2013-07-12 17:01:00,78.0,64.4,32.29,NNW,344,3.0,4.0,63,0.00,,SKC,0.00,VWS V14.01,2013-07-12 21:01:00,
2013-07-12 17:06:00,78.3,63.8,32.29,North,9,2.0,4.0,61,0.00,,SKC,0.00,VWS V14.01,2013-07-12 21:06:00,
2013-07-12 17:11:00,78.1,62.6,32.29,North,360,3.0,4.0,59,0.00,,SKC,0.00,VWS V14.01,2013-07-12 21:11:00,
2013-07-12 17:16:00,78.1,63.1,32.29,NNE,23,6.0,6.0,60,0.00,,SKC,0.00,VWS V14.01,2013-07-12 21:16:00,
2013-07-12 17:21:00,78.1,63.6,32.29,North,9,2.0,3.0,61,0.00,,SKC,0.00,VWS V14.01,2013-07-12 21:21:00,
2013-07-12 17:26:00,78.4,63.8,32.29,NNE,13,2.0,9.0,61,0.00,,SKC,0.00,VWS V14.01,2013-07-12 21:26:00,
2013-07-12 17:31:00,78.7,63.7,32.29,NNE,15,0.0,0.0,60,0.00,,SKC,0.00,VWS V14.01,2013-07-12 21:31:00,
2013-07-12 17:36:00,78.7,63.2,32.29,NE,42,1.0,3.0,59,0.00,,SKC,0.00,VWS V14.01,2013-07-12 21:36:00,
2013-07-12 17:41:00,78.2,63.7,32.29,NNE,26,0.0,1.0,61,0.00,,SKC,0.00,VWS V14.01,2013-07-12 21:41:00,
2013-07-12 17:46:00,77.4,62.9,32.29,NE,40,0.0,3.0,61,0.00,,SKC,0.00,VWS V14.01,2013-07-12 21:46:00,
2013-07-12 17:51:00,76.9,63.4,32.29,North,5,1.0,2.0,63,0.00,,SKC,0.00,VWS V14.01,2013-07-12 21:51:00,
2013-07-12 17:56:00,76.9,63.4,32.29,NW,322,2.0,9.0,63,0.00,,SKC,0.00,VWS V14.01,2013-07-12 21:56:00,
2013-07-12 18:01:00,76.7,63.6,32.29,North,360,2.0,2.0,64,0.00,,SKC,0.00,VWS V14.01,2013-07-12 22:01:00,
2013-07-12 18:07:00,76.4,64.2,32.29,NNE,24,1.0,2.0,66,0.00,,SKC,0.00,VWS V14.01,2013-07-12 22:07:00,
2013-07-12 18:12:00,76.4,63.8,32.29,NNE,23,0.0,1.0,65,0.00,,SKC,0.00,VWS V14.01,2013-07-12 22:12:00,
2013-07-12 18:17:00,76.6,64.4,32.29,NNE,19,1.0,4.0,66,0.00,,SKC,0.00,VWS V14.01,2013-07-12 22:17:00,
2013-07-12 18:22:00,76.5,63.9,32.29,North,350,4.0,5.0,65,0.00,,SKC,0.00,VWS V14.01,2013-07-12 22:22:00,
2013-07-12 18:27:00,76.4,63.3,32.29,North,9,1.0,2.0,64,0.00,,SKC,0.00,VWS V14.01,2013-07-12 22:27:00,
2013-07-12 18:32:00,76.0,63.4,32.29,NNW,336,4.0,4.0,65,0.00,,SKC,0.00,VWS V14.01,2013-07-12 22:32:00,
2013-07-12 18:37:00,76.0,63.8,32.29,North,360,0.0,1.0,66,0.00,,SKC,0.00,VWS V14.01,2013-07-12 22:37:00,
2013-07-12 18:42:00,76.1,63.9,32.29,North,360,3.0,5.0,66,0.00,,SKC,0.00,VWS V14.01,2013-07-12 22:42:00,
2013-07-12 18:47:00,76.3,63.7,32.29,NNW,346,0.0,1.0,65,0.00,,SKC,0.00,VWS V14.01,2013-07-12 22:47:00,
2013-07-12 18:52:00,76.9,63.8,32.29,NNW,347,2.0,5.0,64,0.00,,SKC,0.00,VWS V14.01,2013-07-12 22:52:00,
2013-07-12 18:57:00,76.7,63.6,32.29,NNW,335,4.0,7.0,64,0.00,,SKC,0.00,VWS V14.01,2013-07-12 22:57:00,
2013-07-12 19:02:00,76.0,63.4,32.29,NNE,14,3.0,4.0,65,0.00,,SKC,0.00,VWS V14.01,2013-07-12 23:02:00,
2013-07-12 19:07:00,75.4,63.7,32.29,NNE,15,2.0,3.0,67,0.00,,SKC,0.00,VWS V14.01,2013-07-12 23:07:00,
2013-07-12 19:12:00,74.8,63.5,32.29,NNW,348,4.0,6.0,68,0.00,,SKC,0.00,VWS V14.01,2013-07-12 23:12:00,
2013-07-12 19:17:00,74.4,64.0,32.29,NNW,346,3.0,3.0,70,0.00,,SKC,0.00,VWS V14.01,2013-07-12 23:17:00,
2013-07-12 19:22:00,74.3,63.9,32.29,NNW,334,3.0,4.0,70,0.00,,SKC,0.00,VWS V14.01,2013-07-12 23:22:00,
2013-07-12 19:27:00,74.0,64.0,32.29,NNE,22,0.0,2.0,71,0.00,,SKC,0.00,VWS V14.01,2013-07-12 23:27:00,
2013-07-12 19:32:00,73.6,64.4,32.29,East,90,1.0,2.0,73,0.00,,SKC,0.00,VWS V14.01,2013-07-12 23:32:00,
2013-07-12 19:37:00,73.0,63.5,32.29,East,94,0.0,5.0,72,0.00,,SKC,0.00,VWS V14.01,2013-07-12 23:37:00,
2013-07-12 19:42:00,72.3,63.6,32.29,NNE,15,0.0,3.0,74,0.00,,SKC,0.00,VWS V14.01,2013-07-12 23:42:00,
2013-07-12 19:47:00,71.9,63.5,32.29,NNE,17,0.0,1.0,75,0.00,,SKC,0.00,VWS V14.01,2013-07-12 23:47:00,
2013-07-12 19:52:00,71.7,63.4,32.29,NNE,17,0.0,2.0,75,0.00,,SKC,0.00,VWS V14.01,2013-07-12 23:52:00,
2013-07-12 19:57:00,71.6,63.3,32.29,NNE,22,2.0,3.0,75,0.00,,SKC,0.00,VWS V14.01,2013-07-12 23:57:00,
2013-07-12 20:02:00,71.3,63.3,32.29,NNE,22,0.0,1.0,76,0.00,,SKC,0.00,VWS V14.01,2013-07-13 00:02:00,
2013-07-12 20:07:00,71.1,63.5,32.29,NNE,22,0.0,0.0,77,0.00,,SKC,0.00,VWS V14.01,2013-07-13 00:07:00,
2013-07-12 20:12:00,70.9,63.3,32.29,NNE,21,0.0,2.0,77,0.00,,SKC,0.00,VWS V14.01,2013-07-13 00:12:00,
2013-07-12 20:17:00,70.6,63.0,32.29,NE,38,0.0,2.0,77,0.00,,SKC,0.00,VWS V14.01,2013-07-13 00:17:00,
2013-07-12 20:22:00,70.4,63.2,32.29,NE,38,0.0,1.0,78,0.00,,SKC,0.00,VWS V14.01,2013-07-13 00:22:00,
2013-07-12 20:27:00,70.1,62.9,32.29,NE,36,2.0,2.0,78,0.00,,SKC,0.00,VWS V14.01,2013-07-13 00:27:00,
2013-07-12 20:32:00,69.9,63.1,32.29,NE,36,0.0,1.0,79,0.00,,SKC,0.00,VWS V14.01,2013-07-13 00:32:00,
2013-07-12 20:37:00,69.7,63.3,32.29,NE,36,0.0,0.0,80,0.00,,SKC,0.00,VWS V14.01,2013-07-13 00:37:00,
2013-07-12 20:42:00,69.5,63.4,32.29,NE,36,4.0,4.0,81,0.00,,SKC,0.00,VWS V14.01,2013-07-13 00:42:00,
2013-07-12 20:47:00,69.3,62.9,32.29,NNE,33,2.0,2.0,80,0.00,,SKC,0.00,VWS V14.01,2013-07-13 00:47:00,
2013-07-12 20:52:00,68.8,63.1,32.29,NE,34,2.0,3.0,82,0.00,,SKC,0.00,VWS V14.01,2013-07-13 00:52:00,
2013-07-12 20:57:00,68.4,63.0,32.29,NNE,33,3.0,3.0,83,0.00,,SKC,0.00,VWS V14.01,2013-07-13 00:57:00,
2013-07-12 21:02:00,67.9,62.5,32.29,NNE,33,0.0,0.0,83,0.00,,SKC,0.00,VWS V14.01,2013-07-13 01:02:00,
2013-07-12 21:07:00,67.6,62.9,32.29,NE,34,0.0,0.0,85,0.03,,SKC,0.03,VWS V14.01,2013-07-13 01:07:00,
2013-07-12 21:12:00,67.1,62.5,32.29,NE,34,0.0,2.0,85,0.03,,SKC,0.03,VWS V14.01,2013-07-13 01:12:00,
2013-07-12 21:17:00,66.6,62.9,32.29,NE,34,0.0,0.0,88,0.04,,SKC,0.04,VWS V14.01,2013-07-13 01:17:00,
2013-07-12 21:23:00,66.1,62.8,32.29,NE,34,0.0,1.0,89,0.06,,SKC,0.06,VWS V14.01,2013-07-13 01:23:00,
2013-07-12 21:28:00,65.7,62.7,32.29,NE,34,0.0,0.0,90,0.07,,SKC,0.07,VWS V14.01,2013-07-13 01:28:00,
2013-07-12 21:33:00,65.5,62.8,32.29,NE,34,0.0,1.0,91,0.07,,SKC,0.07,VWS V14.01,2013-07-13 01:33:00,
2013-07-12 21:38:00,65.3,62.6,32.29,NE,34,0.0,0.0,91,0.07,,SKC,0.07,VWS V14.01,2013-07-13 01:38:00,
2013-07-12 21:43:00,65.1,62.7,32.29,NNE,33,0.0,0.0,92,0.07,,SKC,0.07,VWS V14.01,2013-07-13 01:43:00,
2013-07-12 21:48:00,64.9,62.5,32.29,NNE,33,0.0,0.0,92,0.07,,SKC,0.07,VWS V14.01,2013-07-13 01:48:00,
2013-07-12 21:53:00,64.7,62.3,32.29,NNE,33,0.0,0.0,92,0.07,,SKC,0.07,VWS V14.01,2013-07-13 01:53:00,
2013-07-12 21:58:00,64.6,62.2,32.29,NNE,33,0.0,1.0,92,0.07,,SKC,0.07,VWS V14.01,2013-07-13 01:58:00,
2013-07-12 22:03:00,64.6,62.5,32.29,NNE,33,0.0,0.0,93,0.06,,SKC,0.07,VWS V14.01,2013-07-13 02:03:00,
2013-07-12 22:09:00,64.4,62.3,32.29,NE,34,0.0,0.0,93,0.04,,SKC,0.07,VWS V14.01,2013-07-13 02:09:00,
2013-07-12 22:14:00,64.3,62.2,32.29,NE,34,0.0,0.0,93,0.03,,SKC,0.07,VWS V14.01,2013-07-13 02:14:00,
2013-07-12 22:19:00,64.3,62.2,32.29,NE,34,0.0,0.0,93,0.03,,SKC,0.07,VWS V14.01,2013-07-13 02:19:00,
2013-07-12 22:24:00,64.1,62.0,32.29,NE,34,0.0,0.0,93,0.01,,SKC,0.07,VWS V14.01,2013-07-13 02:24:00,
2013-07-12 22:29:00,63.9,61.8,32.29,NNE,33,0.0,0.0,93,0.00,,SKC,0.07,VWS V14.01,2013-07-13 02:29:00,
2013-07-12 22:34:00,63.8,61.7,32.29,NE,34,0.0,0.0,93,0.00,,SKC,0.07,VWS V14.01,2013-07-13 02:34:00,
2013-07-12 22:39:00,63.8,61.7,32.29,NNE,33,0.0,0.0,93,0.00,,SKC,0.07,VWS V14.01,2013-07-13 02:39:00,
2013-07-12 22:44:00,63.7,61.6,32.29,NNE,33,1.0,1.0,93,0.00,,SKC,0.07,VWS V14.01,2013-07-13 02:44:00,
2013-07-12 22:49:00,63.6,61.5,32.29,NNE,33,0.0,0.0,93,0.00,,SKC,0.07,VWS V14.01,2013-07-13 02:49:00,
2013-07-12 22:54:00,63.4,61.3,32.29,NNE,33,0.0,0.0,93,0.00,,SKC,0.07,VWS V14.01,2013-07-13 02:54:00,
2013-07-12 22:59:00,63.3,61.2,32.29,NE,34,0.0,0.0,93,0.00,,SKC,0.07,VWS V14.01,2013-07-13 02:59:00,
2013-07-12 23:04:00,63.2,61.2,32.29,NE,34,0.0,0.0,93,0.00,,SKC,0.07,VWS V14.01,2013-07-13 03:04:00,
2013-07-12 23:09:00,63.1,61.0,32.29,NE,34,0.0,0.0,93,0.00,,SKC,0.07,VWS V14.01,2013-07-13 03:09:00,
2013-07-12 23:14:00,63.1,61.0,32.29,NE,34,0.0,0.0,93,0.00,,SKC,0.07,VWS V14.01,2013-07-13 03:14:00,
2013-07-12 23:19:00,63.1,61.0,32.29,NNE,33,0.0,0.0,93,0.00,,SKC,0.07,VWS V14.01,2013-07-13 03:19:00,
2013-07-12 23:24:00,63.1,61.3,32.29,NE,34,0.0,0.0,94,0.00,,SKC,0.07,VWS V14.01,2013-07-13 03:24:00,
2013-07-12 23:29:00,63.0,61.0,32.29,NNE,33,0.0,0.0,93,0.00,,SKC,0.07,VWS V14.01,2013-07-13 03:29:00,
2013-07-12 23:34:00,62.9,61.2,32.29,NNE,33,0.0,0.0,94,0.00,,SKC,0.07,VWS V14.01,2013-07-13 03:34:00,
2013-07-12 23:39:00,62.8,61.0,32.29,NNE,33,0.0,0.0,94,0.00,,SKC,0.07,VWS V14.01,2013-07-13 03:39:00,
2013-07-12 23:44:00,62.7,61.0,32.29,NE,34,0.0,0.0,94,0.00,,SKC,0.07,VWS V14.01,2013-07-13 03:44:00,
2013-07-12 23:49:00,62.5,60.5,32.29,NE,34,0.0,0.0,93,0.00,,SKC,0.07,VWS V14.01,2013-07-13 03:49:00,
2013-07-12 23:54:00,62.4,60.3,32.29,NNE,33,0.0,0.0,93,0.00,,SKC,0.07,VWS V14.01,2013-07-13 03:54:00,
2013-07-12 23:59:00,62.3,60.6,32.29,NE,34,0.0,0.0,94,0.01,,SKC,0.08,VWS V14.01,2013-07-13 03:59:00,